createdAt,value
2022-09-12T00:01:16.169Z,6.27
2022-09-12T00:03:43.048Z,7.80
2022-09-12T00:06:12.036Z,6.93
2022-09-12T00:08:39.022Z,8.83
2022-09-12T00:11:08.663Z,6.73
2022-09-12T00:13:40.836Z,6.87
2022-09-12T00:16:14.025Z,7.53
2022-09-12T00:18:40.545Z,10.80
2022-09-12T00:21:06.977Z,7.93
2022-09-12T00:23:33.436Z,11.00
2022-09-12T00:25:59.986Z,4.13
2022-09-12T00:28:26.914Z,8.00
2022-09-12T00:30:53.372Z,8.77
2022-09-12T00:33:19.777Z,8.90
2022-09-12T00:35:52.849Z,9.40
2022-09-12T00:38:19.890Z,8.43
2022-09-12T00:40:46.805Z,7.57
2022-09-12T00:43:38.356Z,11.23
2022-09-12T00:46:15.553Z,6.50
2022-09-12T00:48:44.913Z,10.20
2022-09-12T00:51:12.130Z,6.03
2022-09-12T00:53:40.218Z,7.53
2022-09-12T00:56:07.408Z,6.50
2022-09-12T00:58:48.680Z,7.33
2022-09-12T01:01:15.143Z,7.50
2022-09-12T01:03:41.712Z,8.53
2022-09-12T01:06:27.728Z,9.00
2022-09-12T01:08:54.965Z,9.63
2022-09-12T01:11:22.133Z,7.30
2022-09-12T01:13:49.748Z,7.87
2022-09-12T01:16:16.416Z,7.60
2022-09-12T01:19:02.508Z,6.97
2022-09-12T01:21:42.207Z,9.50
2022-09-12T01:24:51.671Z,6.90
2022-09-12T01:27:33.569Z,7.77
2022-09-12T01:30:32.246Z,8.30
2022-09-12T01:33:33.337Z,6.50
2022-09-12T01:36:19.726Z,9.47
2022-09-12T01:38:55.883Z,7.67
2022-09-12T01:41:31.981Z,8.40
2022-09-12T01:44:12.304Z,12.23
2022-09-12T01:46:54.552Z,15.00
2022-09-12T01:49:27.335Z,6.90
2022-09-12T01:52:04.644Z,10.20
2022-09-12T01:54:39.882Z,7.07
2022-09-12T01:57:13.040Z,9.73
2022-09-12T01:59:44.346Z,6.67
2022-09-12T02:02:17.820Z,11.47
2022-09-12T02:04:59.804Z,8.73
2022-09-12T02:07:32.013Z,11.90
2022-09-12T02:10:02.403Z,8.40
2022-09-12T02:12:35.702Z,10.53
2022-09-12T02:15:04.334Z,9.90
2022-09-12T02:17:32.103Z,7.50
2022-09-12T02:20:03.895Z,5.40
2022-09-12T02:22:32.104Z,9.33
2022-09-12T02:25:00.729Z,6.10
2022-09-12T02:27:32.420Z,6.77
2022-09-12T02:29:59.077Z,6.40
2022-09-12T02:32:44.516Z,8.27
2022-09-12T02:35:38.151Z,10.43
2022-09-12T02:38:11.185Z,7.20
2022-09-12T02:40:38.063Z,10.57
2022-09-12T02:43:06.032Z,7.03
2022-09-12T02:45:34.450Z,13.03
2022-09-12T02:48:18.324Z,6.70
2022-09-12T02:50:45.014Z,8.63
2022-09-12T02:53:11.772Z,7.63
2022-09-12T02:55:39.496Z,13.90
2022-09-12T02:58:12.098Z,7.23
2022-09-12T03:00:46.830Z,10.47
2022-09-12T03:03:34.018Z,8.93
2022-09-12T03:06:02.695Z,8.70
2022-09-12T03:09:07.904Z,7.40
2022-09-12T03:11:41.348Z,14.73
2022-09-12T03:14:31.803Z,10.70
2022-09-12T03:17:11.599Z,7.87
2022-09-12T03:20:00.905Z,12.77
2022-09-12T03:22:42.397Z,11.17
2022-09-12T03:25:17.972Z,7.17
2022-09-12T03:27:55.932Z,11.87
2022-09-12T03:30:22.858Z,12.27
2022-09-12T03:32:51.425Z,9.77
2022-09-12T03:35:23.106Z,9.63
2022-09-12T03:37:50.704Z,11.77
2022-09-12T03:40:17.180Z,8.30
2022-09-12T03:42:43.630Z,13.13
2022-09-12T03:45:11.121Z,9.23
2022-09-12T03:47:37.862Z,13.80
2022-09-12T03:50:05.153Z,9.07
2022-09-12T03:52:32.440Z,12.97
2022-09-12T03:54:58.909Z,9.73
2022-09-12T03:57:25.331Z,13.23
2022-09-12T03:59:52.082Z,8.07
2022-09-12T04:02:18.562Z,15.30
2022-09-12T04:04:46.245Z,14.57
2022-09-12T04:07:12.880Z,11.43
2022-09-12T04:09:39.718Z,11.40
2022-09-12T04:12:06.415Z,8.40
2022-09-12T04:14:33.173Z,10.90
2022-09-12T04:16:59.983Z,16.27
2022-09-12T04:19:27.379Z,8.93
2022-09-12T04:21:54.094Z,8.83
2022-09-12T04:24:20.589Z,8.90
2022-09-12T04:26:47.021Z,10.17
2022-09-12T04:29:15.108Z,12.27
2022-09-12T04:31:42.040Z,12.87
2022-09-12T04:34:08.747Z,10.43
2022-09-12T04:36:35.639Z,11.20
2022-09-12T04:39:03.479Z,12.77
2022-09-12T04:41:33.297Z,12.93
2022-09-12T04:44:04.255Z,12.10
2022-09-12T04:46:33.890Z,10.43
2022-09-12T04:49:00.366Z,9.67
2022-09-12T04:51:29.745Z,14.53
2022-09-12T04:53:58.267Z,12.43
2022-09-12T04:56:25.280Z,12.43
2022-09-12T04:58:52.413Z,8.87
2022-09-12T05:01:21.280Z,14.47
2022-09-12T05:03:49.322Z,7.80
2022-09-12T05:06:24.307Z,10.50
2022-09-12T05:08:51.606Z,11.43
2022-09-12T05:11:24.781Z,11.40
2022-09-12T05:13:53.726Z,14.73
2022-09-12T05:16:20.884Z,12.27
2022-09-12T05:18:49.036Z,7.83
2022-09-12T05:21:17.082Z,14.73
2022-09-12T05:23:43.978Z,16.00
2022-09-12T05:26:15.028Z,10.83
2022-09-12T05:28:41.943Z,10.60
2022-09-12T05:31:12.120Z,9.53
2022-09-12T05:33:39.766Z,9.43
2022-09-12T05:36:08.142Z,11.47
2022-09-12T05:38:35.632Z,14.23
2022-09-12T05:41:06.264Z,11.27
2022-09-12T05:43:34.006Z,16.03
2022-09-12T05:46:08.861Z,10.23
2022-09-12T05:48:37.090Z,11.70
2022-09-12T05:51:07.160Z,10.23
2022-09-12T05:53:33.647Z,11.10
2022-09-12T05:56:04.484Z,11.73
2022-09-12T05:58:31.601Z,8.43
2022-09-12T06:01:27.948Z,9.67
2022-09-12T06:03:56.576Z,10.60
2022-09-12T06:06:24.601Z,12.03
2022-09-12T06:08:53.217Z,16.87
2022-09-12T06:11:21.974Z,14.50
2022-09-12T06:13:48.899Z,11.10
2022-09-12T06:16:20.979Z,9.63
2022-09-12T06:18:54.395Z,13.80
2022-09-12T06:21:22.005Z,14.43
2022-09-12T06:23:49.200Z,12.63
2022-09-12T06:26:17.459Z,13.67
2022-09-12T06:28:45.092Z,9.13
2022-09-12T06:31:16.268Z,10.47
2022-09-12T06:33:45.551Z,11.23
2022-09-12T06:36:16.889Z,11.30
2022-09-12T06:38:44.312Z,12.47
2022-09-12T06:41:12.407Z,12.57
2022-09-12T06:43:39.893Z,12.40
2022-09-12T06:46:07.561Z,13.70
2022-09-12T06:48:36.468Z,13.70
2022-09-12T06:51:09.176Z,14.37
2022-09-12T06:53:38.714Z,14.47
2022-09-12T06:56:11.162Z,8.00
2022-09-12T06:58:37.999Z,15.70
2022-09-12T07:01:19.107Z,9.83
2022-09-12T07:03:53.676Z,12.43
2022-09-12T07:06:22.071Z,12.00
2022-09-12T07:08:48.628Z,11.90
2022-09-12T07:11:22.825Z,7.87
2022-09-12T07:13:56.130Z,10.77
2022-09-12T07:16:23.026Z,10.40
2022-09-12T07:18:54.161Z,11.80
2022-09-12T07:21:21.199Z,14.73
2022-09-12T07:23:48.284Z,10.73
2022-09-12T07:26:16.226Z,12.87
2022-09-12T07:28:43.050Z,12.07
2022-09-12T07:31:10.887Z,8.17
2022-09-12T07:33:38.472Z,10.30
2022-09-12T07:36:07.300Z,10.53
2022-09-12T07:38:33.897Z,12.03
2022-09-12T07:41:01.692Z,13.03
2022-09-12T07:43:28.178Z,12.10
2022-09-12T07:45:58.459Z,14.47
2022-09-12T07:48:25.107Z,12.60
2022-09-12T07:50:59.823Z,12.90
2022-09-12T07:53:30.874Z,18.07
2022-09-12T07:55:57.354Z,9.97
2022-09-12T07:58:24.543Z,9.03
2022-09-12T08:00:51.177Z,13.53
2022-09-12T08:03:17.728Z,8.10
2022-09-12T08:05:44.298Z,9.93
2022-09-12T08:08:11.168Z,11.10
2022-09-12T08:10:37.602Z,11.73
2022-09-12T08:13:04.176Z,10.03
2022-09-12T08:15:32.099Z,11.07
2022-09-12T08:17:58.602Z,12.73
2022-09-12T08:20:28.243Z,15.83
2022-09-12T08:22:55.060Z,11.30
2022-09-12T08:25:21.586Z,7.13
2022-09-12T08:27:48.371Z,10.63
2022-09-12T08:30:14.969Z,14.10
2022-09-12T08:32:41.532Z,14.07
2022-09-12T08:35:08.295Z,13.17
2022-09-12T08:37:34.726Z,10.80
2022-09-12T08:40:01.378Z,9.13
2022-09-12T08:42:46.609Z,7.30
2022-09-12T08:45:37.095Z,7.67
2022-09-12T08:48:05.057Z,9.77
2022-09-12T08:50:32.672Z,10.47
2022-09-12T08:53:03.526Z,8.17
2022-09-12T08:56:05.347Z,7.47
2022-09-12T08:58:39.470Z,9.43
2022-09-12T09:01:15.691Z,9.63
2022-09-12T09:04:01.590Z,9.03
2022-09-12T09:07:05.856Z,9.03
2022-09-12T09:09:57.139Z,9.37
2022-09-12T09:12:33.131Z,10.60
2022-09-12T09:15:22.169Z,6.13
2022-09-12T09:17:52.015Z,7.70
2022-09-12T09:20:32.071Z,14.53
2022-09-12T09:23:03.570Z,14.10
2022-09-12T09:25:40.583Z,14.27
2022-09-12T09:28:17.505Z,17.03
2022-09-12T09:30:45.071Z,12.67
2022-09-12T09:33:23.072Z,8.83
2022-09-12T09:36:22.466Z,7.57
2022-09-12T09:39:09.812Z,9.87
2022-09-12T09:41:52.221Z,9.87
2022-09-12T09:44:18.946Z,9.20
2022-09-12T09:46:45.418Z,7.93
2022-09-12T09:49:13.320Z,9.37
2022-09-12T09:51:41.177Z,10.63
2022-09-12T09:54:21.093Z,8.63
2022-09-12T09:56:47.731Z,8.57
2022-09-12T09:59:18.548Z,10.97
2022-09-12T10:01:54.950Z,9.87
2022-09-12T10:04:32.363Z,11.43
2022-09-12T10:07:01.291Z,8.80
2022-09-12T10:09:35.405Z,6.97
2022-09-12T10:12:21.309Z,10.23
2022-09-12T10:15:01.854Z,6.33
2022-09-12T10:17:34.500Z,7.43
2022-09-12T10:20:21.566Z,5.70
2022-09-12T10:22:48.743Z,6.63
2022-09-12T10:25:16.876Z,10.73
2022-09-12T10:27:43.445Z,6.97
2022-09-12T10:30:20.799Z,8.37
2022-09-12T10:32:52.349Z,14.23
2022-09-12T10:35:22.602Z,8.33
2022-09-12T10:38:02.493Z,7.60
2022-09-12T10:40:35.212Z,8.03
2022-09-12T10:43:07.164Z,8.20
2022-09-12T10:45:35.776Z,8.33
2022-09-12T10:48:21.860Z,18.33
2022-09-12T10:50:48.321Z,9.43
2022-09-12T10:53:33.741Z,9.37
2022-09-12T10:56:14.583Z,6.60
2022-09-12T10:59:05.134Z,11.70
2022-09-12T11:01:41.815Z,9.33
2022-09-12T11:04:32.864Z,9.60
2022-09-12T11:07:35.718Z,12.07
2022-09-12T11:10:24.697Z,9.50
2022-09-12T11:13:00.153Z,11.03
2022-09-12T11:15:54.062Z,10.83
2022-09-12T11:18:51.138Z,13.90
2022-09-12T11:21:34.492Z,7.47
2022-09-12T11:24:20.233Z,9.33
2022-09-12T11:27:20.109Z,12.63
2022-09-12T11:29:59.189Z,10.23
2022-09-12T11:32:35.838Z,9.50
2022-09-12T11:35:06.079Z,12.03
2022-09-12T11:37:59.005Z,8.03
2022-09-12T11:40:52.136Z,5.47
2022-09-12T11:43:37.494Z,13.77
2022-09-12T11:46:18.406Z,13.67
2022-09-12T11:49:08.061Z,11.33
2022-09-12T11:51:42.249Z,11.53
2022-09-12T11:54:23.582Z,10.90
2022-09-12T11:56:55.847Z,9.47
2022-09-12T11:59:32.368Z,6.83
2022-09-12T12:02:00.205Z,10.77
2022-09-12T12:04:35.533Z,5.67
2022-09-12T12:07:05.961Z,10.07
2022-09-12T12:09:32.908Z,6.83
2022-09-12T12:12:03.308Z,7.43
2022-09-12T12:14:37.017Z,11.23
2022-09-12T12:17:03.513Z,8.57
2022-09-12T12:19:37.100Z,6.63
2022-09-12T12:22:07.672Z,12.50
2022-09-12T12:24:34.204Z,5.13
2022-09-12T12:27:05.729Z,9.50
2022-09-12T12:29:35.090Z,6.73
2022-09-12T12:32:04.707Z,4.30
2022-09-12T12:34:32.263Z,6.70
2022-09-12T12:37:03.180Z,6.53
2022-09-12T12:39:32.021Z,7.70
2022-09-12T12:42:01.598Z,7.83
2022-09-12T12:44:47.197Z,11.03
2022-09-12T12:47:29.349Z,6.07
2022-09-12T12:49:59.320Z,9.20
2022-09-12T12:52:30.654Z,4.83
2022-09-12T12:54:59.006Z,8.13
2022-09-12T12:57:48.483Z,4.80
2022-09-12T13:00:29.763Z,7.07
2022-09-12T13:02:59.811Z,6.20
2022-09-12T13:05:27.774Z,6.50
2022-09-12T13:08:03.753Z,6.10
2022-09-12T13:10:30.876Z,6.13
2022-09-12T13:13:01.301Z,7.10
2022-09-12T13:15:37.094Z,4.23
2022-09-12T13:18:11.691Z,6.77
2022-09-12T13:20:46.179Z,7.53
2022-09-12T13:23:23.551Z,8.67
2022-09-12T13:25:55.378Z,5.77
2022-09-12T13:28:21.859Z,6.70
2022-09-12T13:30:59.579Z,5.00
2022-09-12T13:33:40.429Z,4.50
2022-09-12T13:36:17.586Z,5.90
2022-09-12T13:39:03.394Z,7.57
2022-09-12T13:41:39.503Z,4.70
2022-09-12T13:44:11.080Z,8.57
2022-09-12T13:46:38.005Z,5.63
2022-09-12T13:49:16.579Z,7.60
2022-09-12T13:51:43.323Z,6.90
2022-09-12T13:54:18.532Z,7.77
2022-09-12T13:56:48.722Z,9.67
2022-09-12T13:59:15.223Z,4.87
2022-09-12T14:01:44.028Z,4.73
2022-09-12T14:04:39.757Z,4.57
2022-09-12T14:07:17.153Z,5.87
2022-09-12T14:09:45.324Z,4.27
2022-09-12T14:12:23.177Z,5.00
2022-09-12T14:14:51.019Z,8.07
2022-09-12T14:17:23.560Z,4.23
2022-09-12T14:19:51.212Z,4.93
2022-09-12T14:22:18.093Z,3.77
2022-09-12T14:24:50.426Z,4.20
2022-09-12T14:27:25.717Z,5.83
2022-09-12T14:30:34.533Z,4.47
2022-09-12T14:33:10.258Z,3.87
2022-09-12T14:35:42.660Z,4.33
2022-09-12T14:38:15.839Z,5.53
2022-09-12T14:40:44.679Z,10.73
2022-09-12T14:43:23.539Z,5.37
2022-09-12T14:45:55.477Z,4.33
2022-09-12T14:48:22.246Z,4.83
2022-09-12T14:50:50.835Z,6.70
2022-09-12T14:53:17.158Z,3.40
2022-09-12T14:55:53.001Z,4.97
2022-09-12T14:58:23.513Z,4.70
2022-09-12T15:01:08.600Z,3.63
2022-09-12T15:03:41.849Z,5.47
2022-09-12T15:06:29.656Z,3.90
2022-09-12T15:08:59.045Z,5.40
2022-09-12T15:11:25.611Z,5.57
2022-09-12T15:13:52.239Z,6.63
2022-09-12T15:16:18.822Z,5.07
2022-09-12T15:18:45.488Z,4.93
2022-09-12T15:21:15.729Z,4.73
2022-09-12T15:23:47.212Z,5.50
2022-09-12T15:26:16.319Z,4.13
2022-09-12T15:28:43.352Z,6.47
2022-09-12T15:31:19.228Z,6.70
2022-09-12T15:33:46.209Z,5.40
2022-09-12T15:36:17.858Z,5.60
2022-09-12T15:38:45.332Z,4.93
2022-09-12T15:41:16.293Z,3.40
2022-09-12T15:43:42.938Z,6.60
2022-09-12T15:46:12.016Z,5.27
2022-09-12T15:48:39.057Z,5.53
2022-09-12T15:51:13.420Z,6.97
2022-09-12T15:53:41.860Z,7.10
2022-09-12T15:56:08.787Z,6.53
2022-09-12T15:58:35.451Z,4.47
2022-09-12T16:01:02.559Z,4.40
2022-09-12T16:03:29.921Z,3.53
2022-09-12T16:06:01.954Z,5.50
2022-09-12T16:08:32.301Z,3.67
2022-09-12T16:11:01.766Z,5.57
2022-09-12T16:13:28.262Z,10.33
2022-09-12T16:15:58.748Z,6.13
2022-09-12T16:18:25.709Z,4.80
2022-09-12T16:20:56.141Z,4.03
2022-09-12T16:23:25.485Z,4.53
2022-09-12T16:26:06.383Z,4.43
2022-09-12T16:28:33.717Z,7.00
2022-09-12T16:31:02.089Z,6.13
2022-09-12T16:33:29.391Z,10.77
2022-09-12T16:36:05.413Z,7.40
2022-09-12T16:38:33.047Z,14.13
2022-09-12T16:41:00.971Z,11.83
2022-09-12T16:43:27.545Z,9.97
2022-09-12T16:46:21.320Z,7.60
2022-09-12T16:48:53.531Z,8.23
2022-09-12T16:51:22.543Z,9.50
2022-09-12T16:53:49.451Z,5.90
2022-09-12T16:56:16.324Z,9.40
2022-09-12T16:58:43.072Z,8.43
2022-09-12T17:01:21.545Z,10.87
2022-09-12T17:03:48.691Z,9.20
2022-09-12T17:06:18.045Z,10.60
2022-09-12T17:08:47.388Z,8.30
2022-09-12T17:11:22.730Z,7.33
2022-09-12T17:14:04.301Z,8.10
2022-09-12T17:16:34.286Z,7.37
2022-09-12T17:19:01.139Z,11.93
2022-09-12T17:21:27.771Z,7.57
2022-09-12T17:23:54.593Z,11.50
2022-09-12T17:26:21.375Z,9.73
2022-09-12T17:28:48.196Z,11.50
2022-09-12T17:31:15.046Z,10.97
2022-09-12T17:33:42.029Z,11.90
2022-09-12T17:36:15.211Z,8.97
2022-09-12T17:38:43.703Z,10.37
2022-09-12T17:41:18.498Z,9.20
2022-09-12T17:43:46.536Z,10.10
2022-09-12T17:46:13.375Z,10.10
2022-09-12T17:48:39.858Z,11.70
2022-09-12T17:51:11.157Z,9.93
2022-09-12T17:53:38.078Z,10.17
2022-09-12T17:56:05.721Z,12.30
2022-09-12T17:58:32.993Z,9.33
2022-09-12T18:01:26.731Z,9.23
2022-09-12T18:03:55.536Z,9.07
2022-09-12T18:06:23.021Z,11.80
2022-09-12T18:08:49.455Z,10.87
2022-09-12T18:11:16.225Z,8.73
2022-09-12T18:13:42.769Z,9.07
2022-09-12T18:16:11.391Z,10.80
2022-09-12T18:18:38.321Z,11.03
2022-09-12T18:21:06.848Z,12.00
2022-09-12T18:23:34.028Z,11.20
2022-09-12T18:26:02.578Z,11.70
2022-09-12T18:28:29.049Z,10.07
2022-09-12T18:30:55.643Z,16.53
2022-09-12T18:33:24.246Z,11.63
2022-09-12T18:35:50.914Z,12.77
2022-09-12T18:38:17.497Z,12.33
2022-09-12T18:40:44.296Z,13.90
2022-09-12T18:43:10.953Z,10.80
2022-09-12T18:45:37.366Z,12.17
2022-09-12T18:48:06.261Z,10.43
2022-09-12T18:50:33.015Z,14.67
2022-09-12T18:53:00.006Z,14.47
2022-09-12T18:55:26.898Z,13.30
2022-09-12T18:57:55.170Z,13.43
2022-09-12T19:00:21.750Z,9.57
2022-09-12T19:02:48.290Z,13.83
2022-09-12T19:05:14.935Z,15.33
2022-09-12T19:07:41.385Z,14.10
2022-09-12T19:10:08.939Z,11.10
2022-09-12T19:12:35.643Z,10.57
2022-09-12T19:15:02.087Z,13.80
2022-09-12T19:17:28.752Z,11.00
2022-09-12T19:19:55.471Z,15.87
2022-09-12T19:22:22.191Z,19.57
2022-09-12T19:24:48.705Z,19.60
2022-09-12T19:27:16.059Z,13.47
2022-09-12T19:29:42.521Z,11.30
2022-09-12T19:32:09.317Z,22.00
2022-09-12T19:34:35.804Z,16.80
2022-09-12T19:37:02.471Z,19.00
2022-09-12T19:39:29.051Z,16.83
2022-09-12T19:41:55.519Z,20.97
2022-09-12T19:44:23.651Z,20.77
2022-09-12T19:46:50.831Z,17.43
2022-09-12T19:49:17.326Z,22.20
2022-09-12T19:51:43.931Z,24.50
2022-09-12T19:54:11.103Z,21.93
2022-09-12T19:56:37.577Z,20.73
2022-09-12T19:59:04.273Z,16.43
2022-09-12T20:01:31.043Z,16.73
2022-09-12T20:03:58.153Z,18.27
2022-09-12T20:06:25.805Z,16.57
2022-09-12T20:08:53.047Z,17.93
2022-09-12T20:11:21.702Z,20.90
2022-09-12T20:13:48.246Z,18.60
2022-09-12T20:16:20.981Z,27.63
2022-09-12T20:18:49.393Z,14.57
2022-09-12T20:21:20.455Z,22.90
2022-09-12T20:23:47.005Z,18.07
2022-09-12T20:26:13.759Z,17.30
2022-09-12T20:28:41.344Z,21.37
2022-09-12T20:31:11.281Z,18.53
2022-09-12T20:33:37.793Z,17.63
2022-09-12T20:36:15.762Z,20.83
2022-09-12T20:38:46.621Z,19.87
2022-09-12T20:41:13.182Z,18.07
2022-09-12T20:43:40.079Z,25.47
2022-09-12T20:46:09.761Z,20.10
2022-09-12T20:48:39.009Z,16.60
2022-09-12T20:51:05.747Z,22.80
2022-09-12T20:53:35.077Z,26.07
2022-09-12T20:56:02.466Z,20.60
2022-09-12T20:58:28.968Z,17.03
2022-09-12T21:00:55.420Z,19.90
2022-09-12T21:03:21.967Z,18.47
2022-09-12T21:05:48.396Z,18.93
2022-09-12T21:08:14.853Z,21.40
2022-09-12T21:10:42.352Z,19.73
2022-09-12T21:13:12.470Z,16.90
2022-09-12T21:15:39.992Z,17.80
2022-09-12T21:18:06.932Z,15.77
2022-09-12T21:20:33.540Z,15.80
2022-09-12T21:23:00.359Z,19.23
2022-09-12T21:25:28.914Z,18.17
2022-09-12T21:27:55.401Z,20.90
2022-09-12T21:30:22.190Z,17.33
2022-09-12T21:32:48.604Z,20.27
2022-09-12T21:35:15.156Z,14.80
2022-09-12T21:37:41.575Z,17.27
2022-09-12T21:40:08.468Z,21.43
2022-09-12T21:42:34.933Z,20.83
2022-09-12T21:45:01.339Z,19.33
2022-09-12T21:47:28.008Z,21.17
2022-09-12T21:49:55.453Z,21.80
2022-09-12T21:52:22.018Z,19.37
2022-09-12T21:54:48.425Z,17.43
2022-09-12T21:57:15.009Z,22.10
2022-09-12T21:59:41.508Z,20.00
2022-09-12T22:02:08.720Z,23.97
2022-09-12T22:04:35.200Z,20.97
2022-09-12T22:07:02.080Z,17.53
2022-09-12T22:09:28.528Z,21.43
2022-09-12T22:11:55.598Z,16.57
2022-09-12T22:14:21.993Z,16.80
2022-09-12T22:16:49.400Z,14.83
2022-09-12T22:19:15.985Z,16.10
2022-09-12T22:22:02.362Z,15.83
2022-09-12T22:24:29.158Z,18.70
2022-09-12T22:26:56.446Z,28.37
2022-09-12T22:29:23.497Z,19.40
2022-09-12T22:31:50.101Z,19.73
2022-09-12T22:34:16.520Z,25.30
2022-09-12T22:36:43.390Z,20.67
2022-09-12T22:39:09.966Z,18.43
2022-09-12T22:41:36.369Z,16.27
2022-09-12T22:44:02.906Z,16.07
2022-09-12T22:46:30.882Z,19.93
2022-09-12T22:48:57.338Z,18.60
2022-09-12T22:51:23.751Z,18.50
2022-09-12T22:53:50.358Z,23.17
2022-09-12T22:56:16.971Z,21.30
2022-09-12T22:58:43.802Z,17.37
2022-09-12T23:01:10.933Z,18.20
2022-09-12T23:03:37.637Z,17.77
2022-09-12T23:06:04.737Z,17.47
2022-09-12T23:08:32.030Z,24.13
2022-09-12T23:11:07.063Z,21.43
2022-09-12T23:13:33.875Z,24.30
2022-09-12T23:16:01.285Z,29.07
2022-09-12T23:18:28.044Z,21.93
2022-09-12T23:20:58.923Z,20.47
2022-09-12T23:23:25.347Z,22.53
2022-09-12T23:26:02.176Z,18.70
2022-09-12T23:28:29.117Z,16.07
2022-09-12T23:30:56.293Z,19.90
2022-09-12T23:33:23.447Z,23.70
2022-09-12T23:35:49.914Z,19.27
2022-09-12T23:38:16.331Z,22.80
2022-09-12T23:40:42.766Z,21.73
2022-09-12T23:43:09.185Z,24.63
2022-09-12T23:45:35.654Z,31.67
2022-09-12T23:48:02.434Z,28.60
2022-09-12T23:50:28.874Z,22.87
2022-09-12T23:52:55.326Z,22.47
2022-09-12T23:55:21.830Z,20.47
2022-09-12T23:57:48.245Z,22.10
